Time;durP1;ratioP1;P1;durP2;ratioP2;P2;SDS_P1;SDS_P2;PMS_P1;PMS_P2;Temp;Humidity;BMP_temperature;BMP_pressure;BME280_temperature;BME280_humidity;BME280_pressure;Samples;Min_cycle;Max_cycle;Signal;HPM_P1;HPM_P2
2022/11/12 00:01:01;;;;;;;5.53;3.23;;;;;;;4.34;100.00;100266.19;5009891;28;21004;-62
2022/11/12 00:03:45;;;;;;;6.03;3.30;;;;;;;4.49;100.00;100287.00;5010452;28;20127;-62
2022/11/12 00:06:29;;;;;;;5.83;2.90;;;;;;;4.59;100.00;100278.84;5008052;28;20124;-62
2022/11/12 00:09:14;;;;;;;2.90;2.23;;;;;;;4.66;100.00;100275.72;5008304;28;20149;-62
2022/11/12 00:11:58;;;;;;;5.50;2.57;;;;;;;4.64;100.00;100254.47;5008034;28;20376;-62
2022/11/12 00:14:42;;;;;;;3.50;2.47;;;;;;;4.76;100.00;100270.06;5008161;28;20080;-62
2022/11/12 00:17:26;;;;;;;3.00;2.03;;;;;;;4.61;100.00;100249.28;5008179;28;20056;-63
2022/11/12 00:20:10;;;;;;;3.17;2.50;;;;;;;4.69;100.00;100270.72;5007372;28;20099;-61
2022/11/12 00:22:54;;;;;;;3.87;2.33;;;;;;;4.64;100.00;100269.69;5009639;28;20126;-61
2022/11/12 00:25:39;;;;;;;1.90;1.53;;;;;;;4.65;100.00;100252.78;5008580;28;20044;-63
2022/11/12 00:28:23;;;;;;;3.53;2.20;;;;;;;4.82;100.00;100269.41;5009316;28;20095;-61
2022/11/12 00:31:09;;;;;;;2.00;1.77;;;;;;;4.64;100.00;100253.59;5010122;28;20469;-63
2022/11/12 00:33:53;;;;;;;2.90;2.03;;;;;;;4.61;100.00;100274.69;5007685;28;20052;-62
2022/11/12 00:36:38;;;;;;;3.40;2.17;;;;;;;4.37;100.00;100248.53;5008996;28;20053;-63
2022/11/12 00:39:21;;;;;;;2.57;2.00;;;;;;;4.41;100.00;100265.59;5008187;28;20204;-62
2022/11/12 00:42:05;;;;;;;4.47;2.43;;;;;;;4.41;100.00;100266.44;5008604;28;20096;-63
2022/11/12 00:44:49;;;;;;;3.37;2.60;;;;;;;4.42;100.00;100250.38;5022484;28;20119;-62
2022/11/12 00:47:33;;;;;;;3.03;2.13;;;;;;;4.40;100.00;100259.66;5003403;28;20515;-63
2022/11/12 00:50:17;;;;;;;3.10;2.80;;;;;;;4.40;100.00;100253.72;5003418;28;20516;-62
2022/11/12 00:53:02;;;;;;;3.73;2.03;;;;;;;4.34;100.00;100230.66;5008951;28;20124;-62
2022/11/12 00:55:46;;;;;;;2.77;1.90;;;;;;;4.44;100.00;100241.16;5007629;28;20061;-62
2022/11/12 00:58:32;;;;;;;2.60;1.87;;;;;;;4.45;100.00;100245.44;5006041;28;20069;-63
2022/11/12 01:01:16;;;;;;;2.60;1.73;;;;;;;4.44;100.00;100247.91;5004062;28;20516;-62
2022/11/12 01:04:00;;;;;;;2.73;1.70;;;;;;;4.40;100.00;100239.34;5003214;28;20156;-63
2022/11/12 01:06:44;;;;;;;3.43;1.70;;;;;;;4.29;100.00;100227.09;5022364;28;20164;-62
2022/11/12 01:09:28;;;;;;;3.17;1.67;;;;;;;4.30;100.00;100237.31;5007946;28;20451;-62
2022/11/12 01:12:13;;;;;;;3.47;2.60;;;;;;;4.09;100.00;100218.88;5003105;28;20064;-62
2022/11/12 01:14:57;;;;;;;2.33;1.80;;;;;;;4.11;100.00;100223.19;5004899;28;20096;-63
2022/11/12 01:17:42;;;;;;;3.00;2.07;;;;;;;4.30;100.00;100241.53;5010453;28;20072;-62
2022/11/12 01:20:25;;;;;;;2.07;1.67;;;;;;;4.36;100.00;100240.06;5007330;28;20104;-62
2022/11/12 01:23:09;;;;;;;2.00;1.60;;;;;;;4.33;100.00;100214.56;5009085;28;20100;-62
2022/11/12 01:25:53;;;;;;;3.90;1.83;;;;;;;4.45;100.00;100232.75;5007348;28;20198;-62
2022/11/12 01:28:38;;;;;;;2.57;1.60;;;;;;;4.34;100.00;100205.25;4993057;28;20697;-64
2022/11/12 01:31:31;;;;;;;4.50;1.80;;;;;;;4.33;100.00;100203.56;5021020;28;20048;-62
2022/11/12 01:34:16;;;;;;;3.50;2.03;;;;;;;4.46;100.00;100216.66;5008994;28;20107;-62
2022/11/12 01:37:00;;;;;;;3.27;1.90;;;;;;;4.38;100.00;100195.25;5009395;28;20085;-62
2022/11/12 01:39:43;;;;;;;3.30;1.83;;;;;;;4.43;100.00;100211.50;5008305;28;20409;-61
2022/11/12 01:42:31;;;;;;;3.63;1.90;;;;;;;4.37;100.00;100215.53;5009129;28;20500;-61
2022/11/12 01:45:16;;;;;;;2.37;1.43;;;;;;;4.25;100.00;100204.97;5003538;28;20104;-61
2022/11/12 01:48:01;;;;;;;2.77;1.53;;;;;;;4.24;100.00;100180.44;5009573;28;20115;-61
2022/11/12 01:50:45;;;;;;;1.77;1.50;;;;;;;4.29;100.00;100200.03;5014050;28;20084;-61
2022/11/12 01:53:37;;;;;;;1.60;1.50;;;;;;;4.32;100.00;100195.09;5011093;28;20069;-61
2022/11/12 01:56:24;;;;;;;2.03;1.57;;;;;;;4.29;100.00;100194.97;5010349;28;20108;-61
2022/11/12 01:59:35;;;;;;;1.77;1.63;;;;;;;4.16;100.00;100187.78;5006923;28;20060;-62
2022/11/12 02:02:19;;;;;;;2.33;1.53;;;;;;;3.97;100.00;100175.34;5010217;28;20107;-61
2022/11/12 02:05:07;;;;;;;1.97;1.63;;;;;;;3.94;100.00;100193.00;5013008;28;20524;-61
2022/11/12 02:07:52;;;;;;;5.87;1.70;;;;;;;3.87;100.00;100206.28;5013478;28;20536;-61
2022/11/12 02:10:38;;;;;;;3.53;1.80;;;;;;;3.65;100.00;100185.28;5008101;28;20103;-61
2022/11/12 02:16:32;;;;;;;3.17;1.70;;;;;;;3.64;100.00;100206.41;5011723;28;20057;-61
2022/11/12 02:19:16;;;;;;;2.53;1.60;;;;;;;3.53;100.00;100210.22;5005202;28;20049;-61
2022/11/12 02:22:00;;;;;;;2.70;1.47;;;;;;;3.47;100.00;100196.50;5009415;28;20574;-61
2022/11/12 02:24:44;;;;;;;1.67;1.57;;;;;;;3.42;100.00;100186.19;5005897;28;20076;-61
2022/11/12 02:27:29;;;;;;;1.70;1.60;;;;;;;3.38;100.00;100196.19;5005754;28;20052;-60
2022/11/12 02:30:13;;;;;;;2.17;1.60;;;;;;;3.32;100.00;100219.63;5020484;28;20061;-62
2022/11/12 02:32:57;;;;;;;2.37;1.47;;;;;;;3.30;100.00;100205.19;5010043;28;20585;-62
2022/11/12 02:35:42;;;;;;;2.33;1.80;;;;;;;3.29;100.00;100204.31;5011921;28;20452;-63
2022/11/12 02:38:26;;;;;;;3.87;2.30;;;;;;;3.27;100.00;100208.47;5011990;28;20060;-61
2022/11/12 02:41:10;;;;;;;1.57;1.33;;;;;;;3.42;100.00;100187.88;5011933;28;20061;-62
2022/11/12 02:43:55;;;;;;;3.20;1.77;;;;;;;3.33;100.00;100185.88;5003151;28;20420;-61
2022/11/12 02:46:39;;;;;;;3.00;1.50;;;;;;;3.35;100.00;100211.28;5011464;28;20452;-60
2022/11/12 02:49:24;;;;;;;3.42;1.55;;;;;;;3.28;100.00;100210.19;5004028;28;20066;-61
2022/11/12 02:52:08;;;;;;;1.77;1.33;;;;;;;3.14;100.00;100206.34;5009350;28;20137;-62
2022/11/12 02:54:52;;;;;;;1.80;1.50;;;;;;;3.10;100.00;100214.59;5011306;28;20120;-61
2022/11/12 02:57:37;;;;;;;1.40;1.30;;;;;;;2.87;100.00;100182.53;5010002;28;20057;-61
2022/11/12 03:00:21;;;;;;;1.65;1.52;;;;;;;2.85;100.00;100171.47;5007198;28;20061;-61
2022/11/12 03:03:05;;;;;;;2.67;1.73;;;;;;;3.02;100.00;100211.78;5009472;28;20064;-62
2022/11/12 03:06:00;;;;;;;3.73;2.57;;;;;;;3.04;100.00;100210.19;5007804;28;20165;-62
2022/11/12 03:08:44;;;;;;;3.03;2.00;;;;;;;2.94;100.00;100187.84;5002834;28;20057;-60
2022/11/12 03:11:28;;;;;;;2.43;1.80;;;;;;;3.11;100.00;100206.19;5007960;28;20523;-60
2022/11/12 03:14:12;;;;;;;4.60;3.07;;;;;;;3.03;100.00;100193.25;5009848;28;20485;-63
2022/11/12 03:16:56;;;;;;;4.43;2.40;;;;;;;3.23;100.00;100219.28;5012335;28;20059;-63
2022/11/12 03:19:40;;;;;;;3.87;2.50;;;;;;;3.14;100.00;100191.97;5009999;28;20052;-62
2022/11/12 03:22:25;;;;;;;3.50;2.08;;;;;;;3.34;100.00;100209.56;5012519;28;20092;-62
2022/11/12 03:25:09;;;;;;;9.53;4.57;;;;;;;3.32;100.00;100209.50;5011120;28;20052;-62
2022/11/12 03:28:02;;;;;;;7.13;3.73;;;;;;;3.25;100.00;100197.44;5011889;28;20048;-60
2022/11/12 03:30:46;;;;;;;6.53;3.50;;;;;;;3.26;100.00;100189.03;5010997;28;20171;-60
2022/11/12 03:33:31;;;;;;;18.73;7.50;;;;;;;3.46;100.00;100220.13;5010996;28;20135;-62
2022/11/12 03:36:16;;;;;;;22.80;11.17;;;;;;;3.38;100.00;100186.91;5006527;28;20053;-61
2022/11/12 03:39:00;;;;;;;13.43;7.27;;;;;;;3.55;100.00;100205.22;5007609;28;20060;-63
2022/11/12 03:41:44;;;;;;;15.97;6.47;;;;;;;3.58;100.00;100202.78;5010373;28;20064;-62
2022/11/12 03:44:28;;;;;;;7.27;4.40;;;;;;;3.60;100.00;100196.97;5011014;28;20052;-63
2022/11/12 03:47:12;;;;;;;7.50;4.27;;;;;;;3.52;100.00;100178.06;5008466;28;20091;-62
2022/11/12 03:49:56;;;;;;;6.30;2.57;;;;;;;3.73;100.00;100199.91;5004610;28;20639;-62
2022/11/12 03:52:45;;;;;;;5.40;3.20;;;;;;;3.71;100.00;100191.38;5011337;28;20182;-62
2022/11/12 03:55:29;;;;;;;12.70;7.03;;;;;;;3.73;100.00;100205.00;5010107;28;20170;-62
2022/11/12 03:58:14;;;;;;;24.87;10.90;;;;;;;3.73;100.00;100212.59;5008552;28;20052;-65
2022/11/12 04:00:58;;;;;;;17.50;8.60;;;;;;;3.73;100.00;100217.66;5009166;28;20065;-62
2022/11/12 04:03:42;;;;;;;14.20;7.23;;;;;;;3.72;100.00;100195.66;5010854;28;20049;-61
2022/11/12 04:09:29;;;;;;;12.33;6.43;;;;;;;3.78;100.00;100208.53;5010405;28;20056;-62
2022/11/12 04:15:19;;;;;;;7.47;3.60;;;;;;;3.53;100.00;100151.91;5010247;28;20053;-61
2022/11/12 04:26:21;;;;;;;9.13;5.10;;;;;;;3.48;100.00;100188.09;5008871;28;20092;-61
2022/11/12 04:27:23;;;;;;;10.13;6.70;;;;;;;3.34;100.00;100190.16;5021142;28;20092;-61
2022/11/12 04:30:18;;;;;;;14.73;8.33;;;;;;;3.28;100.00;100206.78;5009250;28;20435;-62
2022/11/12 04:33:02;;;;;;;16.00;8.57;;;;;;;3.04;100.00;100173.84;5007636;28;20052;-62
2022/11/12 04:35:46;;;;;;;14.87;7.90;;;;;;;3.28;100.00;100184.84;5011399;28;20049;-61
2022/11/12 04:38:30;;;;;;;16.67;8.10;;;;;;;3.11;100.00;100183.41;5009722;28;20412;-61
2022/11/12 04:47:20;;;;;;;21.17;10.67;;;;;;;3.11;100.00;100206.19;5010825;28;20100;-62
2022/11/12 04:50:07;;;;;;;14.07;8.20;;;;;;;3.07;100.00;100195.09;4970454;28;20521;-62
2022/11/12 04:52:51;;;;;;;17.80;8.53;;;;;;;2.94;100.00;100217.38;4971511;28;20054;-62
2022/11/12 04:55:35;;;;;;;14.67;7.43;;;;;;;2.73;100.00;100202.25;4970495;28;20072;-62
2022/11/12 04:58:20;;;;;;;12.10;6.63;;;;;;;2.87;100.00;100210.38;4982412;28;20057;-62
2022/11/12 05:01:04;;;;;;;8.15;5.03;;;;;;;2.73;100.00;100204.78;4967968;28;20053;-61
2022/11/12 05:03:48;;;;;;;14.60;7.23;;;;;;;2.65;100.00;100216.31;4970053;28;20058;-63
2022/11/12 05:06:50;;;;;;;16.90;9.33;;;;;;;2.55;100.00;100210.03;4968773;28;20105;-61
2022/11/12 05:09:35;;;;;;;12.67;7.60;;;;;;;2.43;100.00;100201.09;4964379;28;20642;-62
2022/11/12 05:12:19;;;;;;;13.63;7.32;;;;;;;2.45;100.00;100212.16;4964407;28;20661;-63
2022/11/12 05:15:04;;;;;;;15.67;8.17;;;;;;;2.37;100.00;100216.94;4964242;28;20151;-62
2022/11/12 05:17:49;;;;;;;13.38;6.80;;;;;;;2.21;100.00;100202.78;4967002;28;20137;-61
2022/11/12 05:20:34;;;;;;;11.60;6.27;;;;;;;2.35;100.00;100228.66;4970162;28;20057;-62
2022/11/12 05:23:19;;;;;;;11.15;6.68;;;;;;;2.22;100.00;100232.38;4970121;28;20065;-62
2022/11/12 05:26:03;;;;;;;10.90;5.63;;;;;;;2.18;100.00;100235.56;4972500;28;20157;-62
2022/11/12 05:28:47;;;;;;;8.77;5.43;;;;;;;2.15;100.00;100232.94;4973391;28;20568;-61
2022/11/12 05:31:32;;;;;;;9.00;4.87;;;;;;;2.17;100.00;100248.16;4973883;28;20752;-62
2022/11/12 05:34:16;;;;;;;10.30;4.28;;;;;;;2.07;100.00;100241.88;4974812;28;20053;-62
2022/11/12 05:37:01;;;;;;;9.13;4.17;;;;;;;2.04;100.00;100245.94;4974281;28;20054;-62
2022/11/12 05:39:47;;;;;;;5.13;4.63;;;;;;;2.01;100.00;100245.81;4973560;28;20085;-61
2022/11/12 05:42:31;;;;;;;12.73;4.47;;;;;;;1.97;100.00;100249.00;4970201;28;20137;-61
2022/11/12 05:45:15;;;;;;;7.60;4.83;;;;;;;1.90;100.00;100247.91;4974466;28;20057;-62
2022/11/12 05:47:59;;;;;;;5.90;4.43;;;;;;;1.74;100.00;100226.16;4982572;28;20140;-61
2022/11/12 05:50:44;;;;;;;8.25;4.07;;;;;;;1.68;100.00;100215.81;5008490;28;20072;-62
2022/11/12 05:53:28;;;;;;;8.93;4.53;;;;;;;1.83;100.00;100249.31;5004682;28;20072;-62
2022/11/12 05:56:13;;;;;;;7.83;3.73;;;;;;;1.64;100.00;100218.16;5009136;28;20068;-63
2022/11/12 05:58:57;;;;;;;5.90;4.43;;;;;;;1.77;100.00;100246.53;5005937;28;20068;-64
2022/11/12 06:01:44;;;;;;;5.03;3.03;;;;;;;1.78;100.00;100242.34;5009637;28;20411;-64
2022/11/12 06:04:29;;;;;;;5.83;3.77;;;;;;;1.81;100.00;100250.94;5007111;28;20087;-65
2022/11/12 06:07:13;;;;;;;6.27;2.97;;;;;;;1.83;100.00;100256.91;5017707;28;20057;-63
2022/11/12 06:09:57;;;;;;;6.30;3.27;;;;;;;1.87;100.00;100255.34;5010571;28;20076;-62
2022/11/12 06:12:41;;;;;;;4.57;2.97;;;;;;;1.98;100.00;100258.34;5011596;28;20061;-63
2022/11/12 06:15:27;;;;;;;3.60;2.80;;;;;;;2.07;100.00;100261.25;5008786;28;20064;-63
2022/11/12 06:18:12;;;;;;;4.00;3.27;;;;;;;2.13;100.00;100264.88;5011440;28;20119;-63
2022/11/12 06:21:23;;;;;;;4.63;2.75;;;;;;;2.23;100.00;100268.66;5012570;28;20065;-63
2022/11/12 06:24:08;;;;;;;4.97;2.77;;;;;;;2.32;100.00;100263.97;5010871;28;20055;-64
2022/11/12 06:26:52;;;;;;;4.75;2.28;;;;;;;2.48;100.00;100270.47;5006715;28;20520;-62
2022/11/12 06:29:37;;;;;;;2.70;2.00;;;;;;;2.59;100.00;100276.84;5010803;28;20115;-63
2022/11/12 06:32:24;;;;;;;3.08;2.60;;;;;;;2.68;100.00;100267.06;5003610;28;20829;-65
2022/11/12 06:35:08;;;;;;;5.83;2.93;;;;;;;2.75;100.00;100271.56;5019762;28;20044;-63
2022/11/12 06:37:54;;;;;;;4.23;2.23;;;;;;;2.99;100.00;100261.47;5007221;28;20108;-62
2022/11/12 06:40:38;;;;;;;4.00;2.88;;;;;;;3.13;100.00;100250.19;5003299;28;20509;-67
2022/11/12 06:43:23;;;;;;;4.43;3.13;;;;;;;3.46;100.00;100270.81;5009425;28;20536;-64
2022/11/12 06:46:11;;;;;;;3.55;3.13;;;;;;;3.57;100.00;100270.38;5010599;28;20490;-64
2022/11/12 06:48:56;;;;;;;3.40;2.77;;;;;;;3.63;100.00;100270.59;5010033;28;20092;-64
2022/11/12 06:51:40;;;;;;;3.80;2.93;;;;;;;3.76;100.00;100260.88;5011842;28;20057;-67
2022/11/12 06:54:25;;;;;;;3.60;3.10;;;;;;;3.94;100.00;100258.97;5008638;28;20084;-69
2022/11/12 06:57:09;;;;;;;4.65;3.33;;;;;;;4.04;100.00;100250.84;5009953;28;20681;-59
2022/11/12 06:59:54;;;;;;;2.80;2.33;;;;;;;4.25;100.00;100255.75;5010258;28;20056;-63
2022/11/12 07:02:38;;;;;;;4.10;3.43;;;;;;;4.37;100.00;100251.91;5007706;28;20432;-62
2022/11/12 07:05:22;;;;;;;2.83;2.50;;;;;;;4.50;100.00;100261.66;5004024;28;20061;-62
2022/11/12 07:08:06;;;;;;;3.13;2.50;;;;;;;4.55;100.00;100241.47;5007820;28;20061;-63
2022/11/12 07:10:56;;;;;;;2.80;2.20;;;;;;;4.62;100.00;100229.84;5009596;28;20588;-65
2022/11/12 07:13:43;;;;;;;8.13;7.13;;;;;;;4.89;100.00;100254.38;5004236;28;20049;-63
2022/11/12 07:16:27;;;;;;;7.03;6.43;;;;;;;5.00;100.00;100245.41;5004752;28;20064;-63
2022/11/12 07:19:12;;;;;;;3.13;2.85;;;;;;;5.11;100.00;100222.81;5008324;28;20499;-67
2022/11/12 07:21:56;;;;;;;4.77;4.37;;;;;;;5.53;100.00;100248.56;5005676;28;20060;-61
2022/11/12 07:24:40;;;;;;;4.73;4.10;;;;;;;5.68;100.00;100221.00;5007849;28;20057;-63
2022/11/12 07:27:29;;;;;;;15.63;13.52;;;;;;;6.02;100.00;100227.84;5004859;28;20104;-65
2022/11/12 07:30:13;;;;;;;20.40;16.17;;;;;;;6.24;100.00;100230.06;5021808;28;20049;-65
2022/11/12 07:32:58;;;;;;;12.40;9.27;;;;;;;6.40;100.00;100229.63;5005808;28;20080;-63
2022/11/12 07:35:41;;;;;;;9.40;8.13;;;;;;;6.54;100.00;100231.59;5005070;28;20123;-62
2022/11/12 07:38:28;;;;;;;15.37;10.53;;;;;;;6.54;100.00;100211.22;5011441;28;20381;-63
2022/11/12 07:41:15;;;;;;;12.23;10.20;;;;;;;6.74;100.00;100236.34;5023091;28;20044;-64
2022/11/12 07:43:59;;;;;;;13.33;10.23;;;;;;;6.83;100.00;100235.69;5009924;28;20099;-63
2022/11/12 07:46:44;;;;;;;9.20;7.77;;;;;;;6.95;100.00;100233.41;5005298;28;20115;-64
2022/11/12 07:49:28;;;;;;;8.10;6.60;;;;;;;7.07;100.00;100235.34;5003655;28;20965;-63
2022/11/12 07:52:13;;;;;;;8.10;5.90;;;;;;;7.18;100.00;100233.84;5011358;28;20099;-63
2022/11/12 07:54:57;;;;;;;9.13;7.93;;;;;;;7.34;100.00;100231.63;5010018;28;20127;-62
2022/11/12 07:57:41;;;;;;;11.70;8.37;;;;;;;7.56;100.00;100232.91;5006289;28;20092;-62
2022/11/12 08:00:25;;;;;;;10.70;8.13;;;;;;;7.78;100.00;100236.72;5002339;28;20108;-63
2022/11/12 08:03:09;;;;;;;12.23;8.25;;;;;;;8.07;100.00;100242.31;5005377;28;20065;-64
2022/11/12 08:05:52;;;;;;;6.45;5.10;;;;;;;8.26;100.00;100236.69;5004350;28;20116;-62
2022/11/12 08:08:37;;;;;;;5.43;3.97;;;;;;;8.53;100.00;100239.69;5008626;28;20827;-62
2022/11/12 08:11:21;;;;;;;4.95;4.05;;;;;;;8.80;100.00;100244.34;4991233;28;20139;-62
2022/11/12 08:14:05;;;;;;;5.47;4.43;;;;;;;8.98;100.00;100238.63;4989252;28;20136;-63
2022/11/12 08:16:49;;;;;;;8.13;5.25;;;;;;;9.04;100.00;100223.34;5000103;28;20084;-64
2022/11/12 08:19:33;;;;;;;9.45;4.22;;;;;;;9.25;100.00;100238.13;5004653;28;20416;-63
2022/11/12 08:22:17;;;;;;;9.98;4.10;;;;;;;9.33;100.00;100236.53;5005419;28;20079;-62
2022/11/12 08:25:01;;;;;;;4.07;3.00;;;;;;;9.40;100.00;100238.31;5002859;28;20131;-62
2022/11/12 08:27:45;;;;;;;7.47;3.42;;;;;;;9.37;100.00;100225.47;5007575;28;20057;-63
2022/11/12 08:30:29;;;;;;;6.65;4.00;;;;;;;9.59;100.00;100247.88;5001949;28;20061;-64
2022/11/12 08:33:13;;;;;;;5.43;3.28;;;;;;;9.61;100.00;100251.34;5006907;28;20053;-65
2022/11/12 08:36:00;;;;;;;3.10;2.80;;;;;;;9.55;100.00;100239.31;5018965;28;20061;-64
2022/11/12 08:38:45;;;;;;;3.83;2.17;;;;;;;9.72;100.00;100265.09;5007035;28;20624;-64
2022/11/12 08:41:30;;;;;;;3.13;2.05;;;;;;;9.72;100.00;100243.78;5004730;28;20449;-64
2022/11/12 08:44:13;;;;;;;3.55;2.95;;;;;;;9.81;100.00;100252.41;5005313;28;20170;-63
2022/11/12 08:46:58;;;;;;;4.75;4.00;;;;;;;9.81;100.00;100233.63;5001059;28;20064;-63
2022/11/12 08:49:42;;;;;;;7.68;4.30;;;;;;;9.90;100.00;100249.06;5006525;28;20096;-64
2022/11/12 08:52:26;;;;;;;5.90;3.78;;;;;;;9.88;100.00;100235.41;5007743;28;20361;-66
2022/11/12 08:55:10;;;;;;;4.80;3.67;;;;;;;10.10;100.00;100253.53;5008162;28;20116;-64
2022/11/12 08:57:58;;;;;;;5.53;4.53;;;;;;;10.22;100.00;100260.53;5010739;28;20087;-63
2022/11/12 09:00:43;;;;;;;5.05;4.55;;;;;;;10.27;100.00;100263.13;5013110;28;20052;-63
2022/11/12 09:03:27;;;;;;;5.63;4.80;;;;;;;10.53;100.00;100274.44;5012192;28;20053;-63
2022/11/12 09:06:11;;;;;;;4.32;3.92;;;;;;;10.50;100.00;100249.63;5014463;28;20408;-64
2022/11/12 09:08:56;;;;;;;4.18;3.55;;;;;;;10.79;100.00;100278.03;5007167;28;20225;-64
2022/11/12 09:11:41;;;;;;;5.22;4.13;;;;;;;11.07;100.00;100289.34;5009097;28;20092;-64
2022/11/12 09:14:25;;;;;;;4.72;3.90;;;;;;;11.11;100.00;100269.69;5013739;28;20652;-63
2022/11/12 09:17:09;;;;;;;6.63;4.57;;;;;;;11.27;100.00;100286.88;5013830;28;20115;-67
2022/11/12 09:19:52;;;;;;;6.45;4.53;;;;;;;11.30;100.00;100274.03;5010926;28;20262;-67
2022/11/12 09:22:37;;;;;;;8.00;4.32;;;;;;;11.48;100.00;100289.53;5014218;28;20104;-67
2022/11/12 09:25:21;;;;;;;7.07;3.83;;;;;;;11.49;100.00;100285.25;5005044;28;20084;-65
2022/11/12 09:28:11;;;;;;;4.47;4.07;;;;;;;11.66;100.00;100283.59;5008635;28;20176;-66
2022/11/12 09:30:56;;;;;;;6.78;4.40;;;;;;;11.82;100.00;100293.09;5007942;28;20657;-60
2022/11/12 09:33:40;;;;;;;6.80;4.13;;;;;;;11.87;100.00;100299.13;5010730;28;20057;-65
2022/11/12 09:36:24;;;;;;;4.78;4.38;;;;;;;11.87;100.00;100294.84;5006258;28;20625;-67
2022/11/12 09:39:08;;;;;;;7.85;5.28;;;;;;;12.00;100.00;100293.16;5009668;28;20603;-64
2022/11/12 09:41:52;;;;;;;6.20;4.85;;;;;;;12.08;100.00;100288.00;5006625;28;20531;-66
2022/11/12 09:44:39;;;;;;;8.68;4.88;;;;;;;12.14;100.00;100281.16;5009685;28;20057;-64
2022/11/12 09:47:26;;;;;;;5.50;4.65;;;;;;;12.15;100.00;100298.31;5011088;28;20160;-65
2022/11/12 09:50:30;;;;;;;5.30;4.80;;;;;;;12.26;100.00;100288.06;5011448;28;20056;-64
2022/11/12 09:53:27;;;;;;;7.70;5.68;;;;;;;12.19;100.00;100288.88;5011168;28;20688;-67
2022/11/12 09:56:13;;;;;;;9.07;5.40;;;;;;;12.36;100.00;100282.03;5009699;28;20639;-65
2022/11/12 09:58:57;;;;;;;4.88;4.35;;;;;;;12.52;100.00;100290.63;5006040;28;20488;-64
2022/11/12 10:02:01;;;;;;;5.18;4.43;;;;;;;12.70;100.00;100290.59;5004399;28;20351;-66
2022/11/12 10:05:13;;;;;;;6.85;4.53;;;;;;;12.67;100.00;100290.59;5006030;28;20488;-65
2022/11/12 10:08:10;;;;;;;5.32;4.82;;;;;;;12.83;100.00;100289.72;5005466;28;20061;-66
2022/11/12 10:11:10;;;;;;;4.97;4.47;;;;;;;12.79;100.00;100265.72;5007869;28;20671;-68
2022/11/12 10:14:16;;;;;;;5.50;4.82;;;;;;;12.94;100.00;100285.44;5004461;28;20515;-66
2022/11/12 10:17:28;;;;;;;4.90;4.27;;;;;;;13.15;100.00;100279.41;5011526;28;20060;-66
2022/11/12 10:20:56;;;;;;;5.20;4.70;;;;;;;13.33;100.00;100269.00;5010808;28;20272;-65
2022/11/12 10:23:44;;;;;;;5.13;4.63;;;;;;;13.40;100.00;100250.13;5004622;28;20239;-66
2022/11/12 10:26:30;;;;;;;6.75;4.85;;;;;;;13.68;100.00;100255.97;5008091;28;20049;-65
2022/11/12 10:29:38;;;;;;;5.22;4.72;;;;;;;13.76;100.00;100253.34;5010383;28;20052;-65
2022/11/12 10:32:23;;;;;;;5.22;4.38;;;;;;;13.71;100.00;100231.03;5002586;28;20347;-65
2022/11/12 10:35:07;;;;;;;5.75;4.80;;;;;;;13.96;100.00;100241.22;5006033;28;20052;-65
2022/11/12 10:38:10;;;;;;;5.60;4.85;;;;;;;14.02;100.00;100248.88;5007312;28;20076;-66
2022/11/12 10:40:55;;;;;;;7.97;4.63;;;;;;;14.01;100.00;100245.44;5006389;28;20053;-64
2022/11/12 10:43:53;;;;;;;8.27;6.20;;;;;;;13.95;100.00;100231.75;5010749;28;20498;-66
2022/11/12 10:46:37;;;;;;;8.70;5.70;;;;;;;14.13;100.00;100231.63;5023537;28;20119;-64
2022/11/12 10:49:23;;;;;;;5.00;4.50;;;;;;;14.27;100.00;100219.44;5004429;28;20537;-64
2022/11/12 10:52:22;;;;;;;4.57;4.00;;;;;;;14.44;100.00;100229.66;5005132;28;20053;-65
2022/11/12 10:55:17;;;;;;;6.18;4.85;;;;;;;14.48;100.00;100214.13;5005985;28;20057;-65
2022/11/12 10:58:11;;;;;;;8.25;5.40;;;;;;;14.61;100.00;100232.94;5005768;28;20060;-65
2022/11/12 11:01:00;;;;;;;8.73;6.25;;;;;;;14.63;100.00;100219.16;5006847;28;20052;-65
2022/11/12 11:03:56;;;;;;;5.85;5.22;;;;;;;14.58;100.00;100227.81;5006447;28;20072;-66
2022/11/12 11:06:40;;;;;;;6.35;4.78;;;;;;;14.63;100.00;100226.06;5006853;28;20096;-65
2022/11/12 11:09:25;;;;;;;5.60;4.80;;;;;;;14.61;100.00;100214.88;5011132;28;20052;-65
2022/11/12 11:12:31;;;;;;;6.30;4.38;;;;;;;14.87;100.00;100223.22;5005675;28;20052;-65
2022/11/12 11:15:21;;;;;;;5.70;4.50;;;;;;;14.80;100.00;100219.00;5003823;28;20110;-65
2022/11/12 11:18:11;;;;;;;9.32;3.80;;;;;;;14.96;95.27;100217.09;5004366;28;20048;-66
2022/11/12 11:21:04;;;;;;;4.38;3.40;;;;;;;15.01;94.47;100212.72;5005852;28;20557;-65
2022/11/12 11:23:54;;;;;;;4.80;3.35;;;;;;;14.97;92.53;100206.75;5009082;28;20052;-66
2022/11/12 11:26:54;;;;;;;3.10;2.78;;;;;;;14.95;95.10;100187.81;5006383;28;20103;-66
2022/11/12 11:29:56;;;;;;;4.20;3.38;;;;;;;15.02;97.04;100186.03;5018191;28;20108;-66
2022/11/12 11:33:08;;;;;;;4.00;3.10;;;;;;;15.07;95.07;100189.38;5011388;28;20080;-66
2022/11/12 11:36:11;;;;;;;3.80;2.80;;;;;;;15.17;94.42;100185.84;5011062;28;20103;-65
2022/11/12 11:38:55;;;;;;;4.18;2.90;;;;;;;15.18;91.14;100190.13;5020763;28;20080;-66
2022/11/12 11:41:51;;;;;;;3.08;2.83;;;;;;;15.28;87.49;100183.94;5004987;28;20075;-66
2022/11/12 11:44:58;;;;;;;4.13;1.90;;;;;;;15.27;86.17;100190.03;5005282;28;20049;-65
2022/11/12 11:48:11;;;;;;;5.80;2.20;;;;;;;15.23;83.30;100180.59;5006431;28;20061;-66
2022/11/12 11:51:01;;;;;;;5.22;2.97;;;;;;;15.25;77.52;100177.97;5003712;28;20048;-65
2022/11/12 11:54:12;;;;;;;1.80;1.70;;;;;;;15.29;77.03;100167.59;5009748;28;20051;-65
2022/11/12 11:57:00;;;;;;;4.18;2.50;;;;;;;15.25;76.27;100159.88;5010730;28;20052;-65
2022/11/12 12:00:03;;;;;;;4.57;2.80;;;;;;;15.28;74.55;100141.75;5006922;28;20091;-65
2022/11/12 12:03:00;;;;;;;2.80;2.60;;;;;;;15.35;71.68;100161.47;5004743;28;20076;-65
2022/11/12 12:06:06;;;;;;;2.08;1.98;;;;;;;15.41;71.83;100157.06;5010367;28;20444;-65
2022/11/12 12:09:18;;;;;;;2.67;1.95;;;;;;;15.34;71.14;100160.63;5001370;28;20060;-66
2022/11/12 12:12:05;;;;;;;2.45;1.88;;;;;;;15.47;69.93;100164.75;5009160;28;20129;-65
2022/11/12 12:15:00;;;;;;;2.08;1.88;;;;;;;15.41;69.95;100167.41;5007468;28;20068;-66
2022/11/12 12:18:03;;;;;;;2.85;1.80;;;;;;;15.43;69.92;100162.22;5009359;28;20172;-66
2022/11/12 12:20:57;;;;;;;3.28;2.42;;;;;;;15.27;69.90;100160.75;5009414;28;20044;-66
2022/11/12 12:23:51;;;;;;;1.52;1.42;;;;;;;15.27;70.23;100164.19;5008789;28;20067;-66
2022/11/12 12:26:47;;;;;;;3.05;1.80;;;;;;;15.31;69.38;100155.50;5009123;28;20056;-65
2022/11/12 12:29:55;;;;;;;2.08;1.73;;;;;;;15.30;70.70;100143.47;5009636;28;20052;-66
2022/11/12 12:32:46;;;;;;;2.17;1.95;;;;;;;15.35;70.25;100145.97;5009794;28;20049;-65
2022/11/12 12:35:39;;;;;;;2.38;1.77;;;;;;;15.40;70.32;100151.94;5022697;28;20072;-66
2022/11/12 12:38:33;;;;;;;1.70;1.58;;;;;;;15.51;69.66;100142.31;5010138;28;20412;-65
2022/11/12 12:41:28;;;;;;;2.35;2.22;;;;;;;15.45;69.31;100130.31;5006943;28;20728;-66
2022/11/12 12:44:12;;;;;;;1.95;1.42;;;;;;;15.34;68.71;100121.84;5002924;28;20069;-65
2022/11/12 12:46:59;;;;;;;1.88;1.63;;;;;;;15.30;69.75;100121.94;5007157;28;20079;-65
2022/11/12 12:49:46;;;;;;;2.03;1.83;;;;;;;15.31;70.79;100123.66;5007382;28;20093;-64
2022/11/12 12:53:00;;;;;;;2.53;1.70;;;;;;;15.38;71.26;100131.28;5009293;28;20080;-65
2022/11/12 12:55:46;;;;;;;2.45;1.67;;;;;;;15.23;71.78;100121.16;5009207;28;20052;-66
2022/11/12 12:58:45;;;;;;;2.40;2.20;;;;;;;15.27;72.47;100116.81;5009857;28;20062;-66
2022/11/12 13:01:33;;;;;;;2.85;2.10;;;;;;;15.23;72.70;100126.34;5008899;28;20460;-66
2022/11/12 13:04:54;;;;;;;2.45;2.25;;;;;;;15.25;73.58;100134.91;5009680;28;20071;-65
2022/11/12 13:07:49;;;;;;;2.03;1.92;;;;;;;15.20;73.99;100125.50;5008949;28;20408;-64
2022/11/12 13:10:46;;;;;;;2.10;2.00;;;;;;;15.24;74.16;100130.59;5008613;28;20049;-66
2022/11/12 13:13:36;;;;;;;3.85;2.80;;;;;;;15.29;73.32;100136.56;5010320;28;20144;-65
2022/11/12 13:16:48;;;;;;;2.15;1.90;;;;;;;15.23;73.81;100140.97;5006375;28;20061;-66
2022/11/12 13:19:37;;;;;;;1.70;1.60;;;;;;;15.09;74.57;100125.66;5008412;28;20045;-66